GMFF/FEZ METAR and TAF weather

Enter ICAO airport designator
Station Type Date Time Source
GMFF METAR 2020/09/20 15:30 UTC NOAA

GMFF 201530Z 32007KT 280V360 CAVOK 30/08 Q1018 NOSIG


Station Type Date Time Source
GMFF Decoded METAR 2020/09/20 15:30 UTC NOAA

Fes-Sais, Morocco (GMFF) 33-56N 004-59W 579M
Sep 20, 2020 - 11:30 AM EDT / 2020.09.20 1530 UTC
Wind: from the NW (320 degrees) at 8 MPH (7 KT) (direction variable):0
Visibility: greater than 7 mile(s):0
Temperature: 86 F (30 C)
Dew Point: 46 F (8 C)
Relative Humidity: 25%
Pressure (altimeter): 30.06 in. Hg (1018 hPa)
ob: GMFF 201530Z 32007KT 280V360 CAVOK 30/08 Q1018 NOSIG
cycle: 15

Station Type Date Time Source
GMFF TAF 2020/09/20 12:27 UTC NOAA

TAF TAF GMFF 201100Z 2012/2118 32010KT CAVOK
BECMG 2014/2018 FEW030CB BKN200
BECMG 2020/2022 22006KT CAVOK

Example: see airport list